createdAt,value
2022-10-01T10:27:29.287Z,100528.91
2022-10-01T10:30:16.085Z,100535.59
2022-10-01T10:32:44.076Z,100537.59
2022-10-01T10:35:14.984Z,100542.78
2022-10-01T10:37:48.301Z,100548.72
2022-10-01T10:40:24.584Z,100556.25
2022-10-01T10:42:56.092Z,100561.50
2022-10-01T10:45:37.289Z,100557.72
2022-10-01T10:48:08.065Z,100554.53
2022-10-01T10:50:40.983Z,100565.28
2022-10-01T10:53:22.542Z,100562.75
2022-10-01T10:55:56.293Z,100558.78
2022-10-01T10:58:26.733Z,100573.31
2022-10-01T11:00:58.010Z,100580.81
2022-10-01T11:03:28.281Z,100579.97
2022-10-01T11:06:02.565Z,100587.97
2022-10-01T11:08:29.049Z,100605.69
2022-10-01T11:11:23.260Z,100604.91
2022-10-01T11:14:45.365Z,100608.16
2022-10-01T11:17:27.240Z,100601.88
2022-10-01T11:20:11.446Z,100622.69
2022-10-01T11:23:00.779Z,100626.44
2022-10-01T11:25:52.407Z,100625.22
2022-10-01T11:28:27.776Z,100636.06
2022-10-01T11:31:24.661Z,100652.63
2022-10-01T11:33:55.599Z,100661.09
2022-10-01T11:36:29.148Z,100661.84
2022-10-01T11:39:02.665Z,100654.16
2022-10-01T11:41:41.384Z,100668.38
2022-10-01T11:44:16.415Z,100676.59
2022-10-01T11:46:54.042Z,100659.81
2022-10-01T11:49:38.142Z,100675.47
2022-10-01T11:52:25.043Z,100679.22
2022-10-01T11:54:56.216Z,100688.44
2022-10-01T11:57:42.750Z,100688.00
2022-10-01T12:00:13.244Z,100690.47
2022-10-01T12:02:56.809Z,100691.84
2022-10-01T12:05:29.075Z,100700.09
2022-10-01T12:08:27.915Z,100705.13
2022-10-01T12:11:05.523Z,100698.13
2022-10-01T12:13:37.474Z,100714.53
2022-10-01T12:16:27.586Z,100721.19
2022-10-01T12:19:21.426Z,100725.53
2022-10-01T12:21:59.714Z,100722.59
2022-10-01T12:24:33.957Z,100719.81
2022-10-01T12:27:42.220Z,100718.66
2022-10-01T12:30:24.651Z,100722.16
2022-10-01T12:33:14.375Z,100721.88
2022-10-01T12:36:07.976Z,100732.81
2022-10-01T12:38:47.117Z,100728.66
2022-10-01T12:41:41.949Z,100738.13
2022-10-01T12:44:36.994Z,100736.19
2022-10-01T12:47:42.831Z,100754.03
2022-10-01T12:50:27.081Z,100763.59
2022-10-01T12:53:05.144Z,100761.97
2022-10-01T12:55:46.310Z,100760.69
2022-10-01T12:58:34.064Z,100767.88
2022-10-01T13:01:11.074Z,100764.75
2022-10-01T13:04:03.500Z,100770.22
2022-10-01T13:06:48.054Z,100768.69
2022-10-01T13:09:50.210Z,100773.56
2022-10-01T13:12:35.707Z,100778.97
2022-10-01T13:15:04.072Z,100774.25
2022-10-01T13:17:46.757Z,100792.94
2022-10-01T13:20:33.728Z,100799.91
2022-10-01T13:23:09.600Z,100800.38
2022-10-01T13:26:04.389Z,100805.44
2022-10-01T13:28:51.950Z,100803.78
2022-10-01T13:31:21.553Z,100798.88
2022-10-01T13:33:57.397Z,100809.91
2022-10-01T13:36:33.253Z,100815.31
2022-10-01T13:38:59.926Z,100808.50
2022-10-01T13:41:35.935Z,100821.31
2022-10-01T13:44:08.174Z,100830.03
2022-10-01T13:46:48.051Z,100827.97
2022-10-01T13:49:22.349Z,100838.00
2022-10-01T13:51:48.651Z,100850.19
2022-10-01T13:54:47.308Z,100849.59
2022-10-01T13:57:31.932Z,100842.59
2022-10-01T14:00:22.950Z,100843.88
2022-10-01T14:03:42.023Z,100855.38
2022-10-01T14:06:17.644Z,100868.84
